sensor_id;sensor_type;location;lat;lon;timestamp;P1;durP1;ratioP1;P2;durP2;ratioP2
69937;SDS011;57248;47.320;15.998;2023-07-22T00:00:20;10.82;;;4.65;;
69937;SDS011;57248;47.320;15.998;2023-07-22T00:02:53;15.07;;;4.40;;
69937;SDS011;57248;47.320;15.998;2023-07-22T00:05:25;10.65;;;4.13;;
69937;SDS011;57248;47.320;15.998;2023-07-22T00:07:57;13.27;;;3.90;;
69937;SDS011;57248;47.320;15.998;2023-07-22T00:10:23;9.10;;;3.63;;
69937;SDS011;57248;47.320;15.998;2023-07-22T00:12:54;11.38;;;3.90;;
69937;SDS011;57248;47.320;15.998;2023-07-22T00:15:26;10.98;;;3.85;;
69937;SDS011;57248;47.320;15.998;2023-07-22T00:17:58;13.93;;;4.05;;
69937;SDS011;57248;47.320;15.998;2023-07-22T00:20:31;7.90;;;3.80;;
69937;SDS011;57248;47.320;15.998;2023-07-22T00:23:03;11.77;;;4.05;;
69937;SDS011;57248;47.320;15.998;2023-07-22T00:25:29;9.30;;;4.03;;
69937;SDS011;57248;47.320;15.998;2023-07-22T00:28:00;8.93;;;4.17;;
69937;SDS011;57248;47.320;15.998;2023-07-22T00:30:33;11.13;;;3.85;;
69937;SDS011;57248;47.320;15.998;2023-07-22T00:33:07;13.65;;;4.25;;
69937;SDS011;57248;47.320;15.998;2023-07-22T00:35:39;9.38;;;4.05;;
69937;SDS011;57248;47.320;15.998;2023-07-22T00:38:11;8.27;;;3.78;;
69937;SDS011;57248;47.320;15.998;2023-07-22T00:40:43;10.00;;;4.10;;
69937;SDS011;57248;47.320;15.998;2023-07-22T00:43:15;16.45;;;4.82;;
69937;SDS011;57248;47.320;15.998;2023-07-22T00:45:47;13.70;;;3.97;;
69937;SDS011;57248;47.320;15.998;2023-07-22T00:48:20;13.98;;;3.95;;
69937;SDS011;57248;47.320;15.998;2023-07-22T00:50:53;13.15;;;3.63;;
69937;SDS011;57248;47.320;15.998;2023-07-22T00:53:32;11.33;;;4.33;;
69937;SDS011;57248;47.320;15.998;2023-07-22T00:56:04;10.02;;;3.63;;
69937;SDS011;57248;47.320;15.998;2023-07-22T00:58:30;11.85;;;4.00;;
69937;SDS011;57248;47.320;15.998;2023-07-22T01:01:02;14.73;;;4.13;;
69937;SDS011;57248;47.320;15.998;2023-07-22T01:03:34;7.45;;;3.08;;
69937;SDS011;57248;47.320;15.998;2023-07-22T01:06:00;8.93;;;3.50;;
69937;SDS011;57248;47.320;15.998;2023-07-22T01:08:33;7.40;;;3.22;;
69937;SDS011;57248;47.320;15.998;2023-07-22T01:11:05;9.13;;;3.38;;
69937;SDS011;57248;47.320;15.998;2023-07-22T01:13:37;8.93;;;3.22;;
69937;SDS011;57248;47.320;15.998;2023-07-22T01:16:10;6.43;;;3.08;;
69937;SDS011;57248;47.320;15.998;2023-07-22T01:18:42;8.77;;;3.73;;
69937;SDS011;57248;47.320;15.998;2023-07-22T01:21:14;12.65;;;3.53;;
69937;SDS011;57248;47.320;15.998;2023-07-22T01:23:47;7.20;;;3.10;;
69937;SDS011;57248;47.320;15.998;2023-07-22T01:26:19;9.68;;;3.35;;
69937;SDS011;57248;47.320;15.998;2023-07-22T01:28:51;9.10;;;3.35;;
69937;SDS011;57248;47.320;15.998;2023-07-22T01:31:34;9.30;;;3.23;;
69937;SDS011;57248;47.320;15.998;2023-07-22T01:34:07;8.32;;;3.72;;
69937;SDS011;57248;47.320;15.998;2023-07-22T01:36:39;8.85;;;3.92;;
69937;SDS011;57248;47.320;15.998;2023-07-22T01:39:11;10.73;;;3.63;;
69937;SDS011;57248;47.320;15.998;2023-07-22T01:41:45;10.85;;;4.35;;
69937;SDS011;57248;47.320;15.998;2023-07-22T01:44:17;11.10;;;3.83;;
69937;SDS011;57248;47.320;15.998;2023-07-22T01:46:49;8.80;;;3.83;;
69937;SDS011;57248;47.320;15.998;2023-07-22T01:49:21;8.63;;;3.45;;
69937;SDS011;57248;47.320;15.998;2023-07-22T01:51:49;9.98;;;4.05;;
69937;SDS011;57248;47.320;15.998;2023-07-22T01:54:21;8.18;;;4.70;;
69937;SDS011;57248;47.320;15.998;2023-07-22T01:57:00;9.67;;;5.80;;
69937;SDS011;57248;47.320;15.998;2023-07-22T01:59:32;8.38;;;5.00;;
69937;SDS011;57248;47.320;15.998;2023-07-22T02:02:04;13.48;;;5.03;;
69937;SDS011;57248;47.320;15.998;2023-07-22T02:04:36;13.98;;;5.47;;
69937;SDS011;57248;47.320;15.998;2023-07-22T02:07:08;9.43;;;4.30;;
69937;SDS011;57248;47.320;15.998;2023-07-22T02:09:40;9.23;;;5.20;;
69937;SDS011;57248;47.320;15.998;2023-07-22T02:12:12;8.57;;;4.47;;
69937;SDS011;57248;47.320;15.998;2023-07-22T02:14:44;8.60;;;4.13;;
69937;SDS011;57248;47.320;15.998;2023-07-22T02:17:16;9.38;;;4.15;;
69937;SDS011;57248;47.320;15.998;2023-07-22T02:19:42;11.50;;;4.13;;
69937;SDS011;57248;47.320;15.998;2023-07-22T02:22:15;9.25;;;3.35;;
69937;SDS011;57248;47.320;15.998;2023-07-22T02:24:47;6.85;;;2.90;;
69937;SDS011;57248;47.320;15.998;2023-07-22T02:27:19;7.30;;;3.05;;
69937;SDS011;57248;47.320;15.998;2023-07-22T02:29:51;9.17;;;3.47;;
69937;SDS011;57248;47.320;15.998;2023-07-22T02:32:23;6.75;;;3.47;;
69937;SDS011;57248;47.320;15.998;2023-07-22T02:34:55;9.27;;;3.90;;
69937;SDS011;57248;47.320;15.998;2023-07-22T02:37:27;8.25;;;3.40;;
69937;SDS011;57248;47.320;15.998;2023-07-22T02:39:59;6.82;;;3.30;;
69937;SDS011;57248;47.320;15.998;2023-07-22T02:42:31;6.70;;;3.20;;
69937;SDS011;57248;47.320;15.998;2023-07-22T02:45:03;7.82;;;3.15;;
69937;SDS011;57248;47.320;15.998;2023-07-22T02:47:29;10.98;;;3.00;;
69937;SDS011;57248;47.320;15.998;2023-07-22T02:50:05;6.38;;;3.10;;
69937;SDS011;57248;47.320;15.998;2023-07-22T02:52:45;6.32;;;3.10;;
69937;SDS011;57248;47.320;15.998;2023-07-22T02:55:18;8.23;;;3.40;;
69937;SDS011;57248;47.320;15.998;2023-07-22T02:57:57;8.18;;;4.03;;
69937;SDS011;57248;47.320;15.998;2023-07-22T03:00:29;7.10;;;3.42;;
69937;SDS011;57248;47.320;15.998;2023-07-22T03:02:55;7.73;;;4.00;;
69937;SDS011;57248;47.320;15.998;2023-07-22T03:05:34;13.02;;;4.68;;
69937;SDS011;57248;47.320;15.998;2023-07-22T03:08:06;11.40;;;3.92;;
69937;SDS011;57248;47.320;15.998;2023-07-22T03:10:32;6.90;;;3.87;;
69937;SDS011;57248;47.320;15.998;2023-07-22T03:13:04;8.73;;;4.10;;
69937;SDS011;57248;47.320;15.998;2023-07-22T03:15:36;8.35;;;3.88;;
69937;SDS011;57248;47.320;15.998;2023-07-22T03:18:08;9.73;;;3.70;;
69937;SDS011;57248;47.320;15.998;2023-07-22T03:20:41;8.53;;;3.93;;
69937;SDS011;57248;47.320;15.998;2023-07-22T03:23:13;9.35;;;3.72;;
69937;SDS011;57248;47.320;15.998;2023-07-22T03:25:45;8.18;;;3.97;;
69937;SDS011;57248;47.320;15.998;2023-07-22T03:28:18;8.25;;;3.80;;
69937;SDS011;57248;47.320;15.998;2023-07-22T03:30:50;7.22;;;3.63;;
69937;SDS011;57248;47.320;15.998;2023-07-22T03:33:22;7.93;;;3.50;;
69937;SDS011;57248;47.320;15.998;2023-07-22T03:35:54;7.50;;;3.35;;
69937;SDS011;57248;47.320;15.998;2023-07-22T03:38:26;8.50;;;3.67;;
69937;SDS011;57248;47.320;15.998;2023-07-22T03:40:58;8.10;;;3.50;;
69937;SDS011;57248;47.320;15.998;2023-07-22T03:43:24;10.07;;;3.53;;
69937;SDS011;57248;47.320;15.998;2023-07-22T03:45:55;8.27;;;3.30;;
69937;SDS011;57248;47.320;15.998;2023-07-22T03:48:27;6.65;;;3.08;;
69937;SDS011;57248;47.320;15.998;2023-07-22T03:50:59;7.47;;;3.10;;
69937;SDS011;57248;47.320;15.998;2023-07-22T03:53:38;9.52;;;3.75;;
69937;SDS011;57248;47.320;15.998;2023-07-22T03:56:10;8.30;;;3.10;;
69937;SDS011;57248;47.320;15.998;2023-07-22T03:58:50;7.68;;;2.90;;
69937;SDS011;57248;47.320;15.998;2023-07-22T04:01:22;7.03;;;2.75;;
69937;SDS011;57248;47.320;15.998;2023-07-22T04:03:54;6.60;;;2.67;;
69937;SDS011;57248;47.320;15.998;2023-07-22T04:06:27;6.68;;;2.58;;
69937;SDS011;57248;47.320;15.998;2023-07-22T04:08:59;7.65;;;3.17;;
69937;SDS011;57248;47.320;15.998;2023-07-22T04:11:33;8.38;;;2.75;;
69937;SDS011;57248;47.320;15.998;2023-07-22T04:13:59;7.20;;;2.63;;
69937;SDS011;57248;47.320;15.998;2023-07-22T04:16:30;6.60;;;2.83;;
69937;SDS011;57248;47.320;15.998;2023-07-22T04:19:02;6.75;;;3.15;;
69937;SDS011;57248;47.320;15.998;2023-07-22T04:21:34;5.32;;;2.50;;
69937;SDS011;57248;47.320;15.998;2023-07-22T04:24:06;7.23;;;2.33;;
69937;SDS011;57248;47.320;15.998;2023-07-22T04:26:40;5.80;;;2.42;;
69937;SDS011;57248;47.320;15.998;2023-07-22T04:29:14;5.30;;;2.55;;
69937;SDS011;57248;47.320;15.998;2023-07-22T04:31:46;6.40;;;2.20;;
69937;SDS011;57248;47.320;15.998;2023-07-22T04:34:18;6.55;;;2.60;;
69937;SDS011;57248;47.320;15.998;2023-07-22T04:36:52;4.83;;;2.63;;
69937;SDS011;57248;47.320;15.998;2023-07-22T04:39:23;5.75;;;2.53;;
69937;SDS011;57248;47.320;15.998;2023-07-22T04:41:55;8.20;;;2.38;;
69937;SDS011;57248;47.320;15.998;2023-07-22T04:44:21;6.20;;;2.20;;
69937;SDS011;57248;47.320;15.998;2023-07-22T04:46:53;5.50;;;2.40;;
69937;SDS011;57248;47.320;15.998;2023-07-22T04:49:26;5.70;;;2.47;;
69937;SDS011;57248;47.320;15.998;2023-07-22T04:51:58;6.70;;;2.70;;
69937;SDS011;57248;47.320;15.998;2023-07-22T04:54:37;5.90;;;2.40;;
69937;SDS011;57248;47.320;15.998;2023-07-22T04:57:09;4.93;;;2.10;;
69937;SDS011;57248;47.320;15.998;2023-07-22T04:59:51;5.10;;;2.30;;
69937;SDS011;57248;47.320;15.998;2023-07-22T05:02:23;5.13;;;2.05;;
69937;SDS011;57248;47.320;15.998;2023-07-22T05:04:56;4.82;;;2.10;;
69937;SDS011;57248;47.320;15.998;2023-07-22T05:07:28;6.33;;;2.07;;
69937;SDS011;57248;47.320;15.998;2023-07-22T05:10:02;5.70;;;2.03;;
69937;SDS011;57248;47.320;15.998;2023-07-22T05:12:27;5.15;;;2.35;;
69937;SDS011;57248;47.320;15.998;2023-07-22T05:14:59;7.00;;;2.90;;
69937;SDS011;57248;47.320;15.998;2023-07-22T05:17:31;4.10;;;2.08;;
69937;SDS011;57248;47.320;15.998;2023-07-22T05:20:05;7.60;;;2.20;;
69937;SDS011;57248;47.320;15.998;2023-07-22T05:22:38;4.57;;;1.90;;
69937;SDS011;57248;47.320;15.998;2023-07-22T05:25:12;5.18;;;1.85;;
69937;SDS011;57248;47.320;15.998;2023-07-22T05:27:43;4.50;;;1.95;;
69937;SDS011;57248;47.320;15.998;2023-07-22T05:30:15;5.28;;;1.83;;
69937;SDS011;57248;47.320;15.998;2023-07-22T05:32:47;9.90;;;2.03;;
69937;SDS011;57248;47.320;15.998;2023-07-22T05:35:24;6.00;;;1.83;;
69937;SDS011;57248;47.320;15.998;2023-07-22T05:37:56;6.25;;;2.30;;
69937;SDS011;57248;47.320;15.998;2023-07-22T05:40:28;4.88;;;1.90;;
69937;SDS011;57248;47.320;15.998;2023-07-22T05:43:00;6.75;;;2.20;;
69937;SDS011;57248;47.320;15.998;2023-07-22T05:45:32;5.07;;;2.47;;
69937;SDS011;57248;47.320;15.998;2023-07-22T05:48:04;5.20;;;2.70;;
69937;SDS011;57248;47.320;15.998;2023-07-22T05:50:38;4.75;;;2.15;;
69937;SDS011;57248;47.320;15.998;2023-07-22T05:53:16;4.28;;;2.00;;
69937;SDS011;57248;47.320;15.998;2023-07-22T05:55:55;4.18;;;2.33;;
69937;SDS011;57248;47.320;15.998;2023-07-22T05:58:27;5.43;;;2.00;;
69937;SDS011;57248;47.320;15.998;2023-07-22T06:00:59;4.63;;;2.05;;
69937;SDS011;57248;47.320;15.998;2023-07-22T06:03:31;4.20;;;2.08;;
69937;SDS011;57248;47.320;15.998;2023-07-22T06:06:04;7.97;;;1.95;;
69937;SDS011;57248;47.320;15.998;2023-07-22T06:08:36;5.30;;;2.22;;
69937;SDS011;57248;47.320;15.998;2023-07-22T06:11:08;5.20;;;2.27;;
69937;SDS011;57248;47.320;15.998;2023-07-22T06:13:40;6.25;;;2.40;;
69937;SDS011;57248;47.320;15.998;2023-07-22T06:16:12;6.53;;;2.20;;
69937;SDS011;57248;47.320;15.998;2023-07-22T06:18:44;4.50;;;2.25;;
69937;SDS011;57248;47.320;15.998;2023-07-22T06:21:17;4.32;;;2.38;;
69937;SDS011;57248;47.320;15.998;2023-07-22T06:23:49;5.53;;;2.13;;
69937;SDS011;57248;47.320;15.998;2023-07-22T06:26:21;5.25;;;2.25;;
69937;SDS011;57248;47.320;15.998;2023-07-22T06:28:54;5.85;;;2.35;;
69937;SDS011;57248;47.320;15.998;2023-07-22T06:31:27;5.32;;;2.50;;
69937;SDS011;57248;47.320;15.998;2023-07-22T06:34:03;4.88;;;2.58;;
69937;SDS011;57248;47.320;15.998;2023-07-22T06:36:34;8.13;;;3.83;;
69937;SDS011;57248;47.320;15.998;2023-07-22T06:39:08;6.80;;;3.58;;
69937;SDS011;57248;47.320;15.998;2023-07-22T06:41:40;9.13;;;3.03;;
69937;SDS011;57248;47.320;15.998;2023-07-22T06:44:12;7.32;;;3.13;;
69937;SDS011;57248;47.320;15.998;2023-07-22T06:46:44;7.40;;;3.05;;
69937;SDS011;57248;47.320;15.998;2023-07-22T06:49:16;4.80;;;2.80;;
69937;SDS011;57248;47.320;15.998;2023-07-22T06:51:48;4.80;;;3.03;;
69937;SDS011;57248;47.320;15.998;2023-07-22T06:54:20;6.80;;;2.90;;
69937;SDS011;57248;47.320;15.998;2023-07-22T06:56:54;5.47;;;2.97;;
69937;SDS011;57248;47.320;15.998;2023-07-22T06:59:25;7.32;;;2.88;;
69937;SDS011;57248;47.320;15.998;2023-07-22T07:01:58;5.50;;;2.57;;
69937;SDS011;57248;47.320;15.998;2023-07-22T07:04:30;7.95;;;2.60;;
69937;SDS011;57248;47.320;15.998;2023-07-22T07:07:02;5.80;;;2.70;;
69937;SDS011;57248;47.320;15.998;2023-07-22T07:09:34;8.65;;;3.20;;
69937;SDS011;57248;47.320;15.998;2023-07-22T07:12:06;7.68;;;3.20;;
69937;SDS011;57248;47.320;15.998;2023-07-22T07:14:38;6.73;;;2.70;;
69937;SDS011;57248;47.320;15.998;2023-07-22T07:17:10;6.20;;;2.40;;
69937;SDS011;57248;47.320;15.998;2023-07-22T07:19:36;4.40;;;2.40;;
69937;SDS011;57248;47.320;15.998;2023-07-22T07:22:08;6.75;;;2.40;;
69937;SDS011;57248;47.320;15.998;2023-07-22T07:24:40;5.20;;;2.42;;
69937;SDS011;57248;47.320;15.998;2023-07-22T07:27:12;4.90;;;2.55;;
69937;SDS011;57248;47.320;15.998;2023-07-22T07:29:45;9.23;;;2.78;;
69937;SDS011;57248;47.320;15.998;2023-07-22T07:32:18;4.37;;;2.40;;
69937;SDS011;57248;47.320;15.998;2023-07-22T07:34:50;7.07;;;3.20;;
69937;SDS011;57248;47.320;15.998;2023-07-22T07:37:23;7.93;;;2.90;;
69937;SDS011;57248;47.320;15.998;2023-07-22T07:39:55;6.00;;;3.35;;
69937;SDS011;57248;47.320;15.998;2023-07-22T07:42:30;5.95;;;3.20;;
69937;SDS011;57248;47.320;15.998;2023-07-22T07:45:03;5.50;;;3.47;;
69937;SDS011;57248;47.320;15.998;2023-07-22T07:47:36;8.25;;;3.50;;
69937;SDS011;57248;47.320;15.998;2023-07-22T07:50:09;7.75;;;3.60;;
69937;SDS011;57248;47.320;15.998;2023-07-22T07:52:40;7.43;;;3.75;;
69937;SDS011;57248;47.320;15.998;2023-07-22T07:55:19;7.25;;;3.50;;
69937;SDS011;57248;47.320;15.998;2023-07-22T07:57:51;6.83;;;3.83;;
69937;SDS011;57248;47.320;15.998;2023-07-22T08:00:23;7.15;;;3.40;;
69937;SDS011;57248;47.320;15.998;2023-07-22T08:02:55;5.13;;;3.22;;
69937;SDS011;57248;47.320;15.998;2023-07-22T08:05:27;7.18;;;3.63;;
69937;SDS011;57248;47.320;15.998;2023-07-22T08:07:54;7.07;;;3.70;;
69937;SDS011;57248;47.320;15.998;2023-07-22T08:10:26;6.90;;;3.95;;
69937;SDS011;57248;47.320;15.998;2023-07-22T08:12:58;6.57;;;4.38;;
69937;SDS011;57248;47.320;15.998;2023-07-22T08:15:30;6.40;;;4.00;;
69937;SDS011;57248;47.320;15.998;2023-07-22T08:18:02;11.13;;;4.00;;
69937;SDS011;57248;47.320;15.998;2023-07-22T08:20:35;6.07;;;5.03;;
69937;SDS011;57248;47.320;15.998;2023-07-22T08:23:07;8.13;;;5.55;;
69937;SDS011;57248;47.320;15.998;2023-07-22T08:25:39;8.25;;;6.93;;
69937;SDS011;57248;47.320;15.998;2023-07-22T08:28:11;5.90;;;5.20;;
69937;SDS011;57248;47.320;15.998;2023-07-22T08:30:43;6.40;;;4.13;;
69937;SDS011;57248;47.320;15.998;2023-07-22T08:33:16;7.72;;;4.00;;
69937;SDS011;57248;47.320;15.998;2023-07-22T08:35:48;7.20;;;3.80;;
69937;SDS011;57248;47.320;15.998;2023-07-22T08:38:22;5.28;;;3.53;;
69937;SDS011;57248;47.320;15.998;2023-07-22T08:40:50;5.20;;;3.60;;
69937;SDS011;57248;47.320;15.998;2023-07-22T08:43:23;5.13;;;3.30;;
69937;SDS011;57248;47.320;15.998;2023-07-22T08:45:54;7.75;;;3.30;;
69937;SDS011;57248;47.320;15.998;2023-07-22T08:48:31;5.93;;;3.30;;
69937;SDS011;57248;47.320;15.998;2023-07-22T08:51:04;5.13;;;3.00;;
69937;SDS011;57248;47.320;15.998;2023-07-22T08:53:39;6.23;;;3.20;;
69937;SDS011;57248;47.320;15.998;2023-07-22T08:56:11;4.78;;;3.05;;
69937;SDS011;57248;47.320;15.998;2023-07-22T08:58:54;6.38;;;3.47;;
69937;SDS011;57248;47.320;15.998;2023-07-22T09:01:27;6.32;;;3.33;;
69937;SDS011;57248;47.320;15.998;2023-07-22T09:03:59;6.20;;;3.70;;
69937;SDS011;57248;47.320;15.998;2023-07-22T09:06:32;5.57;;;3.33;;
69937;SDS011;57248;47.320;15.998;2023-07-22T09:09:06;5.30;;;3.30;;
69937;SDS011;57248;47.320;15.998;2023-07-22T09:11:39;6.97;;;3.65;;
69937;SDS011;57248;47.320;15.998;2023-07-22T09:14:11;6.30;;;3.70;;
69937;SDS011;57248;47.320;15.998;2023-07-22T09:16:45;6.22;;;4.50;;
69937;SDS011;57248;47.320;15.998;2023-07-22T09:19:17;5.90;;;3.47;;
69937;SDS011;57248;47.320;15.998;2023-07-22T09:21:49;13.50;;;3.90;;
69937;SDS011;57248;47.320;15.998;2023-07-22T09:24:25;5.68;;;4.57;;
69937;SDS011;57248;47.320;15.998;2023-07-22T09:26:59;6.60;;;5.47;;
69937;SDS011;57248;47.320;15.998;2023-07-22T09:29:35;6.40;;;4.97;;
69937;SDS011;57248;47.320;15.998;2023-07-22T09:32:09;5.03;;;4.10;;
69937;SDS011;57248;47.320;15.998;2023-07-22T09:34:54;6.57;;;4.43;;
69937;SDS011;57248;47.320;15.998;2023-07-22T09:37:36;7.03;;;4.13;;
69937;SDS011;57248;47.320;15.998;2023-07-22T09:42:48;5.00;;;3.60;;
69937;SDS011;57248;47.320;15.998;2023-07-22T09:45:22;6.90;;;3.50;;
69937;SDS011;57248;47.320;15.998;2023-07-22T09:47:56;5.72;;;2.88;;
69937;SDS011;57248;47.320;15.998;2023-07-22T09:50:28;6.82;;;3.47;;
69937;SDS011;57248;47.320;15.998;2023-07-22T09:52:56;6.63;;;2.90;;
69937;SDS011;57248;47.320;15.998;2023-07-22T09:55:41;4.43;;;3.13;;
69937;SDS011;57248;47.320;15.998;2023-07-22T09:58:13;21.27;;;5.05;;
69937;SDS011;57248;47.320;15.998;2023-07-22T10:00:42;5.47;;;3.50;;
69937;SDS011;57248;47.320;15.998;2023-07-22T10:03:20;5.68;;;3.95;;
69937;SDS011;57248;47.320;15.998;2023-07-22T10:05:56;5.63;;;3.80;;
69937;SDS011;57248;47.320;15.998;2023-07-22T10:08:33;5.03;;;4.53;;
69937;SDS011;57248;47.320;15.998;2023-07-22T10:11:07;5.85;;;4.70;;
69937;SDS011;57248;47.320;15.998;2023-07-22T10:13:42;9.98;;;5.28;;
69937;SDS011;57248;47.320;15.998;2023-07-22T10:16:14;5.13;;;4.50;;
69937;SDS011;57248;47.320;15.998;2023-07-22T10:18:41;4.83;;;3.83;;
69937;SDS011;57248;47.320;15.998;2023-07-22T10:21:16;5.57;;;4.45;;
69937;SDS011;57248;47.320;15.998;2023-07-22T10:23:49;5.60;;;4.25;;
69937;SDS011;57248;47.320;15.998;2023-07-22T10:26:22;6.70;;;6.00;;
69937;SDS011;57248;47.320;15.998;2023-07-22T10:28:47;6.00;;;5.00;;
69937;SDS011;57248;47.320;15.998;2023-07-22T10:31:18;6.00;;;5.07;;
69937;SDS011;57248;47.320;15.998;2023-07-22T10:33:51;5.18;;;4.65;;
69937;SDS011;57248;47.320;15.998;2023-07-22T10:36:23;6.50;;;5.90;;
69937;SDS011;57248;47.320;15.998;2023-07-22T10:39:01;8.57;;;7.28;;
69937;SDS011;57248;47.320;15.998;2023-07-22T10:41:33;8.98;;;8.27;;
69937;SDS011;57248;47.320;15.998;2023-07-22T10:44:11;9.18;;;8.38;;
69937;SDS011;57248;47.320;15.998;2023-07-22T10:46:44;8.90;;;8.10;;
69937;SDS011;57248;47.320;15.998;2023-07-22T10:49:44;9.33;;;8.43;;
69937;SDS011;57248;47.320;15.998;2023-07-22T10:52:39;9.40;;;8.50;;
69937;SDS011;57248;47.320;15.998;2023-07-22T10:55:14;9.25;;;8.45;;
69937;SDS011;57248;47.320;15.998;2023-07-22T10:57:53;10.45;;;9.55;;
69937;SDS011;57248;47.320;15.998;2023-07-22T11:00:31;11.35;;;10.45;;
69937;SDS011;57248;47.320;15.998;2023-07-22T11:03:10;7.43;;;6.80;;
69937;SDS011;57248;47.320;15.998;2023-07-22T11:05:52;7.20;;;6.20;;
69937;SDS011;57248;47.320;15.998;2023-07-22T11:08:36;7.20;;;5.68;;
69937;SDS011;57248;47.320;15.998;2023-07-22T11:11:12;6.85;;;6.25;;
69937;SDS011;57248;47.320;15.998;2023-07-22T11:13:44;5.82;;;5.22;;
69937;SDS011;57248;47.320;15.998;2023-07-22T11:16:16;5.13;;;4.10;;
69937;SDS011;57248;47.320;15.998;2023-07-22T11:18:50;6.28;;;4.80;;
69937;SDS011;57248;47.320;15.998;2023-07-22T11:21:22;5.72;;;4.47;;
69937;SDS011;57248;47.320;15.998;2023-07-22T11:23:54;6.22;;;4.68;;
69937;SDS011;57248;47.320;15.998;2023-07-22T11:26:26;5.20;;;4.25;;
69937;SDS011;57248;47.320;15.998;2023-07-22T11:28:58;5.00;;;3.80;;
69937;SDS011;57248;47.320;15.998;2023-07-22T11:31:32;7.60;;;5.50;;
69937;SDS011;57248;47.320;15.998;2023-07-22T11:34:28;7.00;;;4.40;;
69937;SDS011;57248;47.320;15.998;2023-07-22T11:37:00;5.70;;;3.92;;
69937;SDS011;57248;47.320;15.998;2023-07-22T11:39:32;6.88;;;4.70;;
69937;SDS011;57248;47.320;15.998;2023-07-22T11:42:05;6.40;;;4.60;;
69937;SDS011;57248;47.320;15.998;2023-07-22T11:44:39;6.22;;;4.75;;
69937;SDS011;57248;47.320;15.998;2023-07-22T11:47:12;6.82;;;6.13;;
69937;SDS011;57248;47.320;15.998;2023-07-22T11:49:47;5.85;;;5.30;;
69937;SDS011;57248;47.320;15.998;2023-07-22T11:52:20;7.07;;;5.50;;
69937;SDS011;57248;47.320;15.998;2023-07-22T11:54:59;6.27;;;5.37;;
69937;SDS011;57248;47.320;15.998;2023-07-22T11:57:42;6.75;;;4.90;;
69937;SDS011;57248;47.320;15.998;2023-07-22T12:00:14;5.43;;;4.38;;
69937;SDS011;57248;47.320;15.998;2023-07-22T12:02:40;7.40;;;4.68;;
69937;SDS011;57248;47.320;15.998;2023-07-22T12:05:20;7.32;;;4.78;;
69937;SDS011;57248;47.320;15.998;2023-07-22T12:07:53;8.43;;;4.93;;
69937;SDS011;57248;47.320;15.998;2023-07-22T12:10:25;7.53;;;5.60;;
69937;SDS011;57248;47.320;15.998;2023-07-22T12:13:00;10.52;;;6.93;;
69937;SDS011;57248;47.320;15.998;2023-07-22T12:15:34;6.90;;;4.90;;
69937;SDS011;57248;47.320;15.998;2023-07-22T12:18:07;7.25;;;6.55;;
69937;SDS011;57248;47.320;15.998;2023-07-22T12:20:40;8.13;;;5.30;;
69937;SDS011;57248;47.320;15.998;2023-07-22T12:23:15;5.97;;;4.90;;
69937;SDS011;57248;47.320;15.998;2023-07-22T12:25:47;5.20;;;3.92;;
69937;SDS011;57248;47.320;15.998;2023-07-22T12:28:19;4.57;;;3.58;;
69937;SDS011;57248;47.320;15.998;2023-07-22T12:30:52;4.88;;;3.50;;
69937;SDS011;57248;47.320;15.998;2023-07-22T12:33:18;6.33;;;3.70;;
69937;SDS011;57248;47.320;15.998;2023-07-22T12:35:50;6.10;;;3.70;;
69937;SDS011;57248;47.320;15.998;2023-07-22T12:38:23;5.37;;;3.30;;
69937;SDS011;57248;47.320;15.998;2023-07-22T12:40:55;4.85;;;3.40;;
69937;SDS011;57248;47.320;15.998;2023-07-22T12:43:27;5.55;;;3.35;;
69937;SDS011;57248;47.320;15.998;2023-07-22T12:45:59;7.30;;;3.50;;
69937;SDS011;57248;47.320;15.998;2023-07-22T12:48:31;5.88;;;3.40;;
69937;SDS011;57248;47.320;15.998;2023-07-22T12:51:03;6.00;;;3.20;;
69937;SDS011;57248;47.320;15.998;2023-07-22T12:53:35;5.55;;;3.85;;
69937;SDS011;57248;47.320;15.998;2023-07-22T12:56:13;5.53;;;3.95;;
69937;SDS011;57248;47.320;15.998;2023-07-22T12:58:46;6.15;;;4.45;;
69937;SDS011;57248;47.320;15.998;2023-07-22T13:01:25;6.03;;;4.78;;
69937;SDS011;57248;47.320;15.998;2023-07-22T13:03:57;6.37;;;5.77;;
69937;SDS011;57248;47.320;15.998;2023-07-22T13:06:30;5.85;;;4.00;;
69937;SDS011;57248;47.320;15.998;2023-07-22T13:08:56;5.93;;;3.75;;
69937;SDS011;57248;47.320;15.998;2023-07-22T13:11:28;4.97;;;3.63;;
69937;SDS011;57248;47.320;15.998;2023-07-22T13:14:00;4.63;;;3.47;;
69937;SDS011;57248;47.320;15.998;2023-07-22T13:16:25;5.47;;;3.40;;
69937;SDS011;57248;47.320;15.998;2023-07-22T13:18:58;4.88;;;3.55;;
69937;SDS011;57248;47.320;15.998;2023-07-22T13:21:33;6.05;;;4.43;;
69937;SDS011;57248;47.320;15.998;2023-07-22T13:23:58;6.53;;;4.60;;
69937;SDS011;57248;47.320;15.998;2023-07-22T13:26:31;5.78;;;4.22;;
69937;SDS011;57248;47.320;15.998;2023-07-22T13:29:03;5.15;;;4.40;;
69937;SDS011;57248;47.320;15.998;2023-07-22T13:31:35;4.68;;;4.15;;
69937;SDS011;57248;47.320;15.998;2023-07-22T13:34:00;6.67;;;4.00;;
69937;SDS011;57248;47.320;15.998;2023-07-22T13:36:33;5.30;;;4.60;;
69937;SDS011;57248;47.320;15.998;2023-07-22T13:39:05;6.65;;;5.50;;
69937;SDS011;57248;47.320;15.998;2023-07-22T13:41:38;5.90;;;5.13;;
69937;SDS011;57248;47.320;15.998;2023-07-22T13:44:04;6.25;;;4.80;;
69937;SDS011;57248;47.320;15.998;2023-07-22T13:46:37;6.03;;;4.63;;
69937;SDS011;57248;47.320;15.998;2023-07-22T13:49:10;6.38;;;4.40;;
69937;SDS011;57248;47.320;15.998;2023-07-22T13:51:43;7.72;;;5.28;;
69937;SDS011;57248;47.320;15.998;2023-07-22T13:54:15;5.43;;;4.40;;
69937;SDS011;57248;47.320;15.998;2023-07-22T13:56:54;5.82;;;4.70;;
69937;SDS011;57248;47.320;15.998;2023-07-22T13:59:27;5.45;;;4.32;;
69937;SDS011;57248;47.320;15.998;2023-07-22T14:02:00;6.07;;;4.65;;
69937;SDS011;57248;47.320;15.998;2023-07-22T14:04:32;6.15;;;4.43;;
69937;SDS011;57248;47.320;15.998;2023-07-22T14:06:58;5.40;;;4.20;;
69937;SDS011;57248;47.320;15.998;2023-07-22T14:09:31;5.95;;;4.00;;
69937;SDS011;57248;47.320;15.998;2023-07-22T14:12:03;6.50;;;4.40;;
69937;SDS011;57248;47.320;15.998;2023-07-22T14:14:35;5.07;;;3.97;;
69937;SDS011;57248;47.320;15.998;2023-07-22T14:17:00;16.38;;;8.27;;
69937;SDS011;57248;47.320;15.998;2023-07-22T14:19:32;11.10;;;5.10;;
69937;SDS011;57248;47.320;15.998;2023-07-22T14:22:04;5.82;;;4.10;;
69937;SDS011;57248;47.320;15.998;2023-07-22T14:24:36;5.88;;;3.60;;
69937;SDS011;57248;47.320;15.998;2023-07-22T14:27:09;5.25;;;3.30;;
69937;SDS011;57248;47.320;15.998;2023-07-22T14:29:42;5.85;;;3.63;;
69937;SDS011;57248;47.320;15.998;2023-07-22T14:32:14;5.20;;;3.10;;
69937;SDS011;57248;47.320;15.998;2023-07-22T14:34:48;4.90;;;3.00;;
69937;SDS011;57248;47.320;15.998;2023-07-22T14:37:21;5.35;;;2.72;;
69937;SDS011;57248;47.320;15.998;2023-07-22T14:39:53;5.20;;;3.03;;
69937;SDS011;57248;47.320;15.998;2023-07-22T14:42:25;6.20;;;3.30;;
69937;SDS011;57248;47.320;15.998;2023-07-22T14:44:50;5.10;;;3.30;;
69937;SDS011;57248;47.320;15.998;2023-07-22T14:47:22;5.15;;;2.97;;
69937;SDS011;57248;47.320;15.998;2023-07-22T14:49:47;4.70;;;2.83;;
69937;SDS011;57248;47.320;15.998;2023-07-22T14:52:19;4.75;;;2.80;;
69937;SDS011;57248;47.320;15.998;2023-07-22T14:54:51;4.63;;;2.80;;
69937;SDS011;57248;47.320;15.998;2023-07-22T14:57:40;5.65;;;2.35;;
69937;SDS011;57248;47.320;15.998;2023-07-22T15:00:12;4.60;;;2.72;;
69937;SDS011;57248;47.320;15.998;2023-07-22T15:02:45;6.40;;;3.15;;
69937;SDS011;57248;47.320;15.998;2023-07-22T15:05:10;7.10;;;2.70;;
69937;SDS011;57248;47.320;15.998;2023-07-22T15:07:44;6.80;;;4.03;;